YPAD Airport Information

Runway Information
Runway 05 Length 10171 ft width 148 ft
Elevation 14 ft Threshold 493 ft Heading 50
Runway 23 Length 10171 ft Width 148 ft
Elevation 20 ft Threshold 0 ft Heading 230
Runway 12 Length 5420 ft width 148 ft
Elevation 14 ft Threshold 0 ft Heading 124
Runway 30 Length 5420 ft Width 148 ft
Elevation 14 ft Threshold 0 ft Heading 304
Airport Frequencies
Type A/D Name APP/DEP Frequency 118.2 MHZ
Type ATIS Name ATIS Frequency 116.4 MHZ
Type CLD Name CLNC DEL Frequency 126.1 MHZ
Type GND Name GND Frequency 121.7 MHZ
Type TWR Name TWR Frequency 120.5 MHZ
Airport Navaids
Type VOR-DME Name Adelaide Frequency 116400 KHZ
Type NDB Name Adelaide Frequency 362 KHZ
Type NDB Name Modbury Frequency 377 KHZ
Airport Weather Information & NOTAM
ADDS - METARS form results

(0135 UTC 19 August 2018)
 
METAR text: YPAD 190100Z 21013KT 9999 FEW035 BKN048 12/05 Q1031 NOSIG
Conditions at: YPAD (ADELAIDE INTL AR, AU) observed 0100 UTC 19 August 2018
Temperature: 12.0°C (54°F)
Dewpoint: 5.0°C (41°F) [RH = 62%]
Pressure (altimeter): 30.44 inches Hg (1031.0 mb)
Winds: from the SSW (210 degrees) at 15 MPH (13 knots; 6.8 m/s)
Visibility: 6 or more miles (10+ km)
Ceiling: 4800 feet AGL
Clouds: few clouds at 3500 feet AGL
broken clouds at 4800 feet AGL
Weather: no significant weather observed at this time